Time;durP1;ratioP1;P1;durP2;ratioP2;P2;SDS_P1;SDS_P2;PMS_P1;PMS_P2;Temp;Humidity;BMP_temperature;BMP_pressure;BME280_temperature;BME280_humidity;BME280_pressure;Samples;Min_cycle;Max_cycle;Signal;HPM_P1;HPM_P2
2021/04/07 00:00:51;;;;;;;28.13;13.23;;;;;;;9.49;63.15;99024.54;126255;1099;104143;-76
2021/04/07 00:03:20;;;;;;;26.90;12.13;;;;;;;9.46;63.13;99030.63;126313;1099;104686;-77
2021/04/07 00:05:49;;;;;;;23.07;11.43;;;;;;;9.35;62.66;99027.83;126347;1096;104140;-78
2021/04/07 00:08:25;;;;;;;22.80;11.90;;;;;;;9.30;62.55;99033.83;126291;1096;104212;-77
2021/04/07 00:10:54;;;;;;;22.90;11.37;;;;;;;9.14;63.06;99037.92;126291;1096;104136;-77
2021/04/07 00:13:24;;;;;;;24.10;10.97;;;;;;;8.95;62.92;99040.20;126257;1099;104357;-78
2021/04/07 00:15:53;;;;;;;29.00;12.17;;;;;;;8.72;62.46;99042.37;126324;1098;104258;-77
2021/04/07 00:18:21;;;;;;;23.93;11.73;;;;;;;8.51;62.63;99042.84;126272;1098;104640;-77
2021/04/07 00:20:50;;;;;;;20.90;10.80;;;;;;;8.34;62.34;99046.80;126213;1099;104274;-77
2021/04/07 00:23:19;;;;;;;21.93;10.20;;;;;;;8.20;62.32;99051.73;126260;1099;104229;-77
2021/04/07 00:25:48;;;;;;;20.03;10.27;;;;;;;8.12;62.04;99048.95;126266;1099;104293;-77
2021/04/07 00:28:19;;;;;;;23.73;11.27;;;;;;;8.04;62.28;99043.55;126147;1099;104130;-77
2021/04/07 00:30:49;;;;;;;22.83;11.00;;;;;;;8.00;62.10;99035.61;126218;1098;104147;-77
2021/04/07 00:33:19;;;;;;;21.97;11.53;;;;;;;7.97;62.13;99039.02;126222;1099;106909;-78
2021/04/07 00:35:48;;;;;;;23.63;11.43;;;;;;;7.92;61.90;99033.69;126314;1099;104216;-78
2021/04/07 00:38:17;;;;;;;22.43;11.20;;;;;;;7.89;62.26;99037.97;126211;1099;104309;-78
2021/04/07 00:40:46;;;;;;;21.60;11.10;;;;;;;7.86;62.33;99032.67;126268;1099;104303;-77
2021/04/07 00:43:15;;;;;;;22.23;11.77;;;;;;;7.78;62.29;99031.63;126284;1099;104143;-76
2021/04/07 00:45:44;;;;;;;20.67;10.43;;;;;;;7.75;62.29;99024.59;126290;1098;104171;-77
2021/04/07 00:48:13;;;;;;;22.10;10.50;;;;;;;7.70;62.23;99029.70;126306;1098;104286;-77
2021/04/07 00:50:42;;;;;;;22.30;10.87;;;;;;;7.66;62.28;99022.63;126195;1099;104312;-77
2021/04/07 00:53:12;;;;;;;24.70;10.83;;;;;;;7.63;62.34;99022.56;126183;1099;104262;-78
2021/04/07 00:55:45;;;;;;;20.37;10.93;;;;;;;7.61;62.26;99016.44;126325;1099;104261;-77
2021/04/07 00:58:16;;;;;;;23.37;11.00;;;;;;;7.60;62.28;99019.00;126249;1099;104233;-77
2021/04/07 01:00:45;;;;;;;23.23;11.80;;;;;;;7.55;62.20;99014.55;126293;1099;104277;-77
2021/04/07 01:03:15;;;;;;;21.47;10.90;;;;;;;7.46;62.08;99014.33;126216;1099;104210;-77
2021/04/07 01:05:44;;;;;;;22.73;11.83;;;;;;;7.39;62.23;99012.43;126321;1099;104194;-77
2021/04/07 01:08:13;;;;;;;21.40;10.80;;;;;;;7.36;62.08;99010.62;126312;1099;104139;-77
2021/04/07 01:10:42;;;;;;;21.13;10.27;;;;;;;7.33;62.24;99012.28;126246;1098;104134;-78
2021/04/07 01:13:11;;;;;;;21.00;10.73;;;;;;;7.32;62.12;99007.89;126266;1098;104139;-76
2021/04/07 01:15:40;;;;;;;21.53;11.13;;;;;;;7.27;61.84;99007.78;126228;1099;104207;-76
2021/04/07 01:18:09;;;;;;;22.73;11.03;;;;;;;7.23;62.23;99019.00;126328;1099;104143;-77
2021/04/07 01:20:38;;;;;;;22.60;11.30;;;;;;;7.19;62.18;99004.10;126318;1099;104155;-78
2021/04/07 01:23:08;;;;;;;22.47;11.70;;;;;;;7.13;62.05;99010.03;126235;1097;104168;-77
2021/04/07 01:25:36;;;;;;;19.90;10.07;;;;;;;7.09;62.14;99018.65;126311;1097;104172;-78
2021/04/07 01:28:06;;;;;;;21.23;10.23;;;;;;;7.07;62.12;99012.48;126316;1099;104159;-78
2021/04/07 01:30:45;;;;;;;23.50;11.23;;;;;;;7.06;61.95;98989.88;126273;1098;104194;-77
2021/04/07 01:33:25;;;;;;;20.27;10.47;;;;;;;7.09;62.34;98992.56;126237;1099;104131;-77
2021/04/07 01:35:54;;;;;;;23.03;11.63;;;;;;;7.10;62.15;98988.22;126287;1099;104149;-78
2021/04/07 01:38:23;;;;;;;21.47;11.10;;;;;;;7.11;62.32;98988.26;126318;1099;104265;-77
2021/04/07 01:40:54;;;;;;;21.17;10.73;;;;;;;7.08;62.51;98985.56;126255;1099;104156;-78
2021/04/07 01:43:25;;;;;;;22.87;11.47;;;;;;;7.09;62.29;98976.01;126265;1099;104335;-77
2021/04/07 01:45:56;;;;;;;23.10;11.47;;;;;;;7.04;62.20;98978.50;126213;1099;104131;-77
2021/04/07 01:48:26;;;;;;;22.47;11.70;;;;;;;6.96;62.43;98975.70;126328;1099;104139;-78
2021/04/07 01:50:54;;;;;;;21.57;10.67;;;;;;;6.93;62.21;98966.92;126300;1098;104238;-77
2021/04/07 01:53:23;;;;;;;22.57;11.10;;;;;;;6.91;62.25;98979.05;126213;1099;104389;-77
2021/04/07 01:55:52;;;;;;;19.93;10.00;;;;;;;6.87;62.19;98961.55;126285;1099;104143;-77
2021/04/07 01:58:21;;;;;;;22.40;10.37;;;;;;;6.87;62.63;98958.94;126280;1099;104156;-78
2021/04/07 02:00:50;;;;;;;20.40;10.87;;;;;;;6.82;62.02;98961.42;126338;1099;104188;-78
2021/04/07 02:03:19;;;;;;;22.23;11.20;;;;;;;6.74;62.19;98965.56;126249;1098;104281;-77
2021/04/07 02:05:48;;;;;;;24.53;12.17;;;;;;;6.65;62.34;98979.23;126292;1099;104137;-77
2021/04/07 02:08:16;;;;;;;23.43;10.93;;;;;;;6.55;62.30;98972.02;126284;1099;104168;-77
2021/04/07 02:10:45;;;;;;;23.03;11.97;;;;;;;6.46;62.46;98978.72;126287;1099;104271;-77
2021/04/07 02:13:14;;;;;;;21.53;10.30;;;;;;;6.40;62.47;98985.49;126268;1097;104137;-77
2021/04/07 02:15:43;;;;;;;22.67;11.43;;;;;;;6.35;62.98;98990.57;126320;1099;104350;-77
2021/04/07 02:18:12;;;;;;;22.07;11.87;;;;;;;6.27;62.64;99002.50;126249;1099;104338;-77
2021/04/07 02:20:41;;;;;;;22.37;11.23;;;;;;;6.22;62.70;99006.71;126311;1098;104291;-77
2021/04/07 02:23:10;;;;;;;22.70;11.17;;;;;;;6.16;62.64;99014.34;126248;1099;104162;-77
2021/04/07 02:25:38;;;;;;;20.67;11.10;;;;;;;6.08;62.53;99019.33;126312;1096;104155;-77
2021/04/07 02:28:07;;;;;;;21.10;11.17;;;;;;;6.01;63.12;99026.05;126317;1096;104284;-77
2021/04/07 02:30:36;;;;;;;21.97;11.47;;;;;;;5.96;62.95;99032.81;126299;1096;104144;-77
2021/04/07 02:33:05;;;;;;;20.30;10.57;;;;;;;5.91;62.97;99026.59;126300;1099;104162;-77
2021/04/07 02:35:34;;;;;;;20.43;10.50;;;;;;;5.90;63.03;99030.89;126099;1099;104328;-77
2021/04/07 02:38:07;;;;;;;20.70;10.50;;;;;;;5.91;63.06;99022.25;126322;1098;104255;-78
2021/04/07 02:40:36;;;;;;;20.90;10.93;;;;;;;5.91;63.27;99031.80;126289;1099;104290;-77
2021/04/07 02:43:05;;;;;;;22.93;11.47;;;;;;;5.91;63.57;99021.38;126275;1099;104150;-77
2021/04/07 02:45:34;;;;;;;20.90;10.97;;;;;;;5.91;63.30;99019.66;126272;1099;104261;-77
2021/04/07 02:48:04;;;;;;;20.60;10.27;;;;;;;5.93;63.44;99030.11;126249;1099;104142;-77
2021/04/07 02:50:32;;;;;;;22.13;10.97;;;;;;;5.94;63.81;99031.89;126300;1096;104134;-78
2021/04/07 02:53:01;;;;;;;22.23;11.13;;;;;;;5.90;63.54;99037.83;126280;1096;104294;-77
2021/04/07 02:55:30;;;;;;;22.20;12.50;;;;;;;5.88;63.75;99047.32;126198;1099;104197;-77
2021/04/07 02:57:59;;;;;;;22.17;12.27;;;;;;;5.85;63.78;99040.29;126234;1099;104343;-76
2021/04/07 03:00:28;;;;;;;22.60;12.00;;;;;;;5.82;63.78;99050.61;126290;1098;104144;-77
2021/04/07 03:02:56;;;;;;;20.50;10.77;;;;;;;5.85;64.08;99060.24;126309;1099;104141;-77
2021/04/07 03:05:25;;;;;;;23.20;11.23;;;;;;;5.84;63.65;99066.27;126176;1096;104201;-77
2021/04/07 03:07:54;;;;;;;22.77;11.60;;;;;;;5.83;64.07;99067.09;126208;1096;104150;-78
2021/04/07 03:10:26;;;;;;;22.37;12.30;;;;;;;5.81;63.78;99072.25;126314;1096;104268;-78
2021/04/07 03:12:54;;;;;;;21.67;11.43;;;;;;;5.80;63.79;99077.41;126312;1096;104145;-78
2021/04/07 03:15:24;;;;;;;24.10;11.57;;;;;;;5.81;64.01;99079.19;126202;1096;104179;-77
2021/04/07 03:17:53;;;;;;;22.53;12.23;;;;;;;5.81;63.73;99087.00;126240;1097;104265;-77
2021/04/07 03:20:22;;;;;;;22.40;12.30;;;;;;;5.75;64.27;99093.78;126236;1099;104850;-77
2021/04/07 03:22:50;;;;;;;22.33;10.53;;;;;;;5.72;64.31;99104.09;126231;1099;104277;-77
2021/04/07 03:25:19;;;;;;;19.07;9.50;;;;;;;5.68;64.38;99099.61;126182;1099;104197;-77
2021/04/07 03:27:48;;;;;;;23.70;10.93;;;;;;;5.62;63.75;99115.03;126297;1099;104146;-77
2021/04/07 03:30:18;;;;;;;21.63;10.67;;;;;;;5.52;64.10;99115.57;126284;1097;104271;-78
2021/04/07 03:32:48;;;;;;;22.77;10.40;;;;;;;5.46;63.90;99108.43;126254;1099;104191;-77
2021/04/07 03:35:17;;;;;;;19.73;9.97;;;;;;;5.46;64.00;99104.95;126265;1099;104192;-77
2021/04/07 03:37:45;;;;;;;19.00;9.20;;;;;;;5.49;64.49;99116.34;126268;1099;104174;-77
2021/04/07 03:40:16;;;;;;;16.80;8.47;;;;;;;5.43;64.10;99118.73;126291;1099;104210;-78
2021/04/07 03:42:45;;;;;;;17.30;8.47;;;;;;;5.37;64.22;99119.39;126287;1099;104147;-78
2021/04/07 03:45:15;;;;;;;15.57;7.63;;;;;;;5.34;64.36;99116.69;126164;1099;104320;-78
2021/04/07 03:47:44;;;;;;;17.77;8.43;;;;;;;5.31;64.66;99124.39;126246;1096;104207;-77
2021/04/07 03:50:13;;;;;;;16.33;8.37;;;;;;;5.30;64.36;99116.53;126194;1097;105012;-76
2021/04/07 03:52:41;;;;;;;19.70;8.77;;;;;;;5.29;64.30;99120.86;126042;1097;104290;-76
2021/04/07 03:55:12;;;;;;;19.70;8.50;;;;;;;5.28;64.88;99113.00;126077;1099;104414;-76
2021/04/07 03:57:41;;;;;;;14.90;7.87;;;;;;;5.25;64.53;99103.41;126009;1097;104651;-76
2021/04/07 04:00:11;;;;;;;13.67;6.93;;;;;;;5.22;64.54;99098.09;125978;1099;105479;-76
2021/04/07 04:02:40;;;;;;;16.53;7.60;;;;;;;5.18;65.06;99102.28;126061;1099;104131;-76
2021/04/07 04:05:10;;;;;;;16.37;8.20;;;;;;;5.17;64.98;99097.02;126174;1098;104172;-78
2021/04/07 04:07:38;;;;;;;15.37;7.43;;;;;;;5.19;64.50;99095.39;126175;1099;104140;-76
2021/04/07 04:10:08;;;;;;;16.33;7.57;;;;;;;5.19;64.90;99087.58;126288;1099;104150;-77
2021/04/07 04:12:37;;;;;;;15.90;7.23;;;;;;;5.19;64.63;99095.39;126147;1099;104754;-77
2021/04/07 04:15:09;;;;;;;15.83;7.77;;;;;;;5.21;64.74;99091.11;126265;1099;104126;-77
2021/04/07 04:17:39;;;;;;;14.43;7.47;;;;;;;5.21;64.72;99093.71;126294;1096;104137;-78
2021/04/07 04:20:09;;;;;;;14.57;7.03;;;;;;;5.18;64.92;99096.20;126242;1099;104213;-78
2021/04/07 04:22:38;;;;;;;15.70;7.40;;;;;;;5.13;65.23;99098.64;126226;1096;104140;-78
2021/04/07 04:25:10;;;;;;;13.87;6.97;;;;;;;5.13;65.06;99103.84;126193;1096;104153;-78
2021/04/07 04:27:39;;;;;;;14.40;6.83;;;;;;;5.12;65.48;99101.20;126172;1099;104149;-78
2021/04/07 04:30:11;;;;;;;13.73;7.13;;;;;;;5.10;64.84;99118.47;126137;1099;104142;-78
2021/04/07 04:32:40;;;;;;;12.90;6.13;;;;;;;5.13;64.98;99123.77;126035;1099;104134;-77
2021/04/07 04:35:11;;;;;;;13.70;7.00;;;;;;;5.13;65.53;99113.38;126150;1099;104341;-77
2021/04/07 04:37:40;;;;;;;12.33;6.10;;;;;;;5.11;65.08;99120.22;126167;1096;104239;-77
2021/04/07 04:40:11;;;;;;;13.40;6.80;;;;;;;5.10;64.94;99108.06;126123;1096;104270;-78
2021/04/07 04:42:40;;;;;;;14.07;6.00;;;;;;;5.09;65.02;99120.16;126154;1096;104168;-79
2021/04/07 04:45:10;;;;;;;13.30;6.70;;;;;;;5.10;65.03;99124.54;126108;1096;104178;-78
2021/04/07 04:47:39;;;;;;;16.53;7.27;;;;;;;5.16;65.45;99129.08;126216;1095;104223;-78
2021/04/07 04:50:11;;;;;;;14.07;6.53;;;;;;;5.16;65.47;99139.48;126190;1098;104277;-78
2021/04/07 04:52:40;;;;;;;12.97;6.50;;;;;;;5.15;65.45;99135.11;125999;1099;104294;-78
2021/04/07 04:55:10;;;;;;;13.50;6.20;;;;;;;5.12;64.83;99142.80;125972;1099;104130;-79
2021/04/07 04:57:39;;;;;;;12.90;5.60;;;;;;;5.13;64.86;99144.58;125882;1096;104169;-78
2021/04/07 05:00:10;;;;;;;12.87;6.10;;;;;;;5.13;64.97;99153.25;125860;1099;104217;-79
2021/04/07 05:02:42;;;;;;;13.20;5.47;;;;;;;5.14;65.04;99154.13;125936;1096;104579;-78
2021/04/07 05:05:12;;;;;;;12.37;5.83;;;;;;;5.12;65.05;99168.80;125868;1099;104229;-79
2021/04/07 05:07:41;;;;;;;11.57;5.83;;;;;;;5.05;65.19;99157.30;125801;1099;104236;-78
2021/04/07 05:10:11;;;;;;;14.57;5.90;;;;;;;5.01;65.39;99156.28;126010;1099;104268;-78
2021/04/07 05:12:40;;;;;;;13.97;5.87;;;;;;;5.07;65.31;99150.43;126068;1099;104267;-78
2021/04/07 05:15:10;;;;;;;11.13;5.80;;;;;;;5.10;65.17;99145.34;125989;1097;104195;-79
2021/04/07 05:17:39;;;;;;;10.57;5.40;;;;;;;5.18;64.80;99161.22;125935;1099;104149;-79
2021/04/07 05:20:10;;;;;;;10.80;5.80;;;;;;;5.20;65.48;99151.75;126205;1099;104182;-78
2021/04/07 05:22:39;;;;;;;11.33;5.60;;;;;;;5.17;65.41;99152.55;125983;1099;104171;-79
2021/04/07 05:25:09;;;;;;;15.30;6.27;;;;;;;5.14;64.88;99148.92;125860;1098;104175;-80
2021/04/07 05:27:38;;;;;;;15.73;5.83;;;;;;;5.13;65.03;99147.17;125996;1099;104139;-80
2021/04/07 05:30:10;;;;;;;10.63;5.40;;;;;;;5.18;65.54;99135.21;126030;1099;104146;-79
2021/04/07 05:32:40;;;;;;;10.57;5.30;;;;;;;5.27;65.08;99130.34;125846;1099;104127;-77
2021/04/07 05:35:10;;;;;;;12.80;6.07;;;;;;;5.31;65.03;99126.12;125896;1099;104290;-76
2021/04/07 05:37:39;;;;;;;13.23;6.10;;;;;;;5.33;64.87;99134.84;125787;1099;104327;-79
2021/04/07 05:40:09;;;;;;;10.23;5.37;;;;;;;5.36;65.42;99133.26;125991;1099;104242;-77
2021/04/07 05:42:38;;;;;;;10.20;5.80;;;;;;;5.38;65.20;99131.58;125940;1099;104208;-78
2021/04/07 05:45:08;;;;;;;14.13;6.07;;;;;;;5.35;65.31;99131.48;126006;1098;104272;-78
2021/04/07 05:47:37;;;;;;;15.40;6.40;;;;;;;5.38;64.82;99109.90;125882;1099;104491;-78
2021/04/07 05:50:06;;;;;;;13.30;6.57;;;;;;;5.39;64.94;99096.95;125755;1097;104351;-78
2021/04/07 05:52:35;;;;;;;14.37;6.90;;;;;;;5.50;65.22;99115.52;125807;1099;104174;-78
2021/04/07 05:55:05;;;;;;;14.90;6.77;;;;;;;5.57;64.76;99127.88;125717;1099;104290;-78
2021/04/07 05:57:34;;;;;;;16.10;6.53;;;;;;;5.59;65.14;99135.73;126063;1099;104329;-78
2021/04/07 06:00:04;;;;;;;13.43;6.60;;;;;;;5.56;65.02;99123.53;125752;1099;104168;-79
2021/04/07 06:02:34;;;;;;;13.23;6.37;;;;;;;5.61;65.24;99123.69;125750;1099;104172;-80
2021/04/07 06:05:03;;;;;;;13.47;6.60;;;;;;;5.64;65.15;99138.50;125803;1099;104153;-82
2021/04/07 06:07:32;;;;;;;12.70;6.13;;;;;;;5.66;64.67;99127.31;125950;1099;102759;-79
2021/04/07 06:10:01;;;;;;;14.33;5.90;;;;;;;5.74;65.08;99141.46;125841;1099;104153;-78
2021/04/07 06:12:33;;;;;;;14.20;6.87;;;;;;;5.84;65.13;99159.98;126098;1099;104166;-80
2021/04/07 06:15:16;;;;;;;12.60;6.27;;;;;;;5.77;64.83;99156.30;125734;1099;104319;-78
2021/04/07 06:17:53;;;;;;;12.07;6.40;;;;;;;5.69;64.65;99148.24;125818;1099;104235;-78
2021/04/07 06:20:24;;;;;;;15.27;6.23;;;;;;;5.63;64.66;99150.64;125768;1099;111899;-78
2021/04/07 06:22:54;;;;;;;12.67;6.30;;;;;;;5.55;64.93;99145.17;125820;1096;104186;-80
2021/04/07 06:25:24;;;;;;;11.90;5.93;;;;;;;5.53;64.48;99136.44;125798;1099;104242;-78
2021/04/07 06:27:58;;;;;;;15.23;6.60;;;;;;;5.44;64.20;99146.53;125962;1096;104146;-81
2021/04/07 06:33:10;;;;;;;14.20;6.47;;;;;;;5.24;64.41;99112.02;125926;1099;104753;-76
2021/04/07 06:35:40;;;;;;;15.17;6.17;;;;;;;5.16;64.73;99095.28;125814;1099;104265;-77
2021/04/07 06:38:15;;;;;;;13.63;6.03;;;;;;;5.17;65.27;99069.33;125767;1099;104309;-77
2021/04/07 06:40:46;;;;;;;11.87;5.53;;;;;;;5.18;64.50;99026.87;125756;1099;104310;-77
2021/04/07 06:43:16;;;;;;;12.50;5.70;;;;;;;5.30;64.88;99036.81;125705;1099;104354;-77
2021/04/07 06:45:47;;;;;;;15.33;6.33;;;;;;;5.39;64.27;99077.83;125591;1099;104339;-77
2021/04/07 06:48:20;;;;;;;17.85;6.50;;;;;;;5.45;64.75;99121.39;125697;1099;104217;-78
2021/04/07 06:50:53;;;;;;;10.23;5.50;;;;;;;5.42;64.49;99137.77;125598;1099;104335;-78
2021/04/07 06:53:27;;;;;;;10.35;5.72;;;;;;;5.35;64.77;99147.09;125748;1099;104140;-78
2021/04/07 06:56:01;;;;;;;11.93;5.87;;;;;;;5.27;64.45;99160.67;125581;1099;104223;-80
2021/04/07 06:58:34;;;;;;;12.50;6.07;;;;;;;5.21;64.62;99141.39;125641;1099;104258;-78
2021/04/07 07:01:05;;;;;;;18.27;6.47;;;;;;;5.19;64.58;99123.99;125664;1099;107791;-77
2021/04/07 07:03:37;;;;;;;11.97;6.07;;;;;;;5.21;64.46;99117.12;125635;1099;104172;-76
2021/04/07 07:06:23;;;;;;;12.93;5.93;;;;;;;5.27;64.41;99112.13;125675;1099;104338;-76
2021/04/07 07:08:57;;;;;;;11.67;5.70;;;;;;;5.36;64.39;99111.54;125709;1097;104253;-77
2021/04/07 07:11:38;;;;;;;;;;;;;;;5.38;64.46;99128.11;125938;1099;111932;-77
2021/04/07 07:14:31;;;;;;;16.03;6.33;;;;;;;5.36;64.73;99132.34;125686;1099;104707;-77
2021/04/07 07:17:27;;;;;;;12.50;5.83;;;;;;;5.36;64.34;99129.75;125732;1098;104431;-76
2021/04/07 07:19:57;;;;;;;16.30;5.70;;;;;;;5.38;64.49;99144.59;125800;1099;104249;-77
2021/04/07 07:22:27;;;;;;;14.73;5.70;;;;;;;5.39;64.35;99177.59;126030;1099;104346;-77
2021/04/07 07:24:58;;;;;;;11.87;5.57;;;;;;;5.34;64.36;99173.92;126052;1099;104223;-77
2021/04/07 07:27:40;;;;;;;9.83;5.10;;;;;;;5.26;64.74;99185.78;125873;1099;104172;-77
2021/04/07 07:30:14;;;;;;;11.90;5.80;;;;;;;5.13;64.52;99193.98;125793;1099;105368;-79
2021/04/07 07:32:46;;;;;;;14.73;5.87;;;;;;;5.04;64.98;99203.20;125990;1099;104137;-78
2021/04/07 07:35:17;;;;;;;11.67;5.70;;;;;;;4.99;64.61;99233.34;125889;1099;104265;-80
2021/04/07 07:37:46;;;;;;;12.43;5.50;;;;;;;4.95;64.73;99251.38;125866;1099;104137;-77
2021/04/07 07:40:26;;;;;;;10.97;5.43;;;;;;;4.88;64.98;99245.06;125953;1097;104264;-79
2021/04/07 07:43:00;;;;;;;9.53;5.00;;;;;;;4.85;64.76;99260.54;126040;1096;104258;-78
2021/04/07 07:45:33;;;;;;;10.87;5.17;;;;;;;4.77;65.22;99248.94;125958;1096;104162;-79
2021/04/07 07:48:07;;;;;;;11.10;5.12;;;;;;;4.68;65.07;99263.35;125973;1096;104268;-80
2021/04/07 07:50:50;;;;;;;11.45;5.58;;;;;;;4.50;65.10;99260.02;126158;1096;104163;-77
2021/04/07 07:53:21;;;;;;;12.20;5.80;;;;;;;4.27;65.80;99280.77;125950;1099;104760;-78
2021/04/07 07:55:55;;;;;;;10.70;5.27;;;;;;;3.99;65.54;99270.95;125952;1099;104191;-78
2021/04/07 07:58:28;;;;;;;10.32;5.50;;;;;;;3.78;65.72;99279.58;125729;1099;104143;-78
2021/04/07 08:01:10;;;;;;;12.50;5.40;;;;;;;3.62;66.06;99289.25;125707;1099;104176;-80
2021/04/07 08:03:51;;;;;;;10.00;4.87;;;;;;;3.53;66.29;99292.31;125725;1099;104156;-79
2021/04/07 08:06:26;;;;;;;13.50;6.15;;;;;;;3.47;65.91;99295.51;125905;1096;104175;-78
2021/04/07 08:08:58;;;;;;;14.83;6.37;;;;;;;3.41;66.15;99309.11;125895;1096;104475;-78
2021/04/07 08:11:28;;;;;;;14.17;6.70;;;;;;;3.31;66.26;99311.22;125850;1096;104172;-77
2021/04/07 08:13:59;;;;;;;17.27;7.17;;;;;;;3.15;65.74;99322.59;125881;1099;104175;-78
2021/04/07 08:16:29;;;;;;;14.67;6.60;;;;;;;3.00;65.92;99321.04;125847;1099;104165;-77
2021/04/07 08:19:13;;;;;;;15.70;7.00;;;;;;;2.88;66.72;99326.55;126074;1099;104181;-77
2021/04/07 08:21:45;;;;;;;17.25;8.33;;;;;;;2.79;66.54;99317.43;124986;1099;104468;-76
2021/04/07 08:24:18;;;;;;;12.67;6.20;;;;;;;2.70;66.33;99321.37;124993;1099;104245;-76
2021/04/07 08:26:48;;;;;;;16.03;7.67;;;;;;;2.57;66.74;99326.79;125047;1099;104063;-76
2021/04/07 08:29:17;;;;;;;13.67;6.73;;;;;;;2.47;66.54;99333.20;124971;1099;104210;-76
2021/04/07 08:31:49;;;;;;;17.80;7.90;;;;;;;2.36;67.43;99334.38;124971;1099;104171;-76
2021/04/07 08:34:25;;;;;;;17.07;8.20;;;;;;;2.29;66.96;99340.05;125098;1099;104348;-76
2021/04/07 08:36:54;;;;;;;17.13;7.80;;;;;;;2.26;67.46;99348.57;125002;1099;104223;-77
2021/04/07 08:39:24;;;;;;;15.57;7.33;;;;;;;2.25;67.18;99353.67;125094;1099;104169;-79
2021/04/07 08:41:53;;;;;;;13.70;6.40;;;;;;;2.21;66.89;99372.44;125019;1099;104222;-77
2021/04/07 08:44:23;;;;;;;15.60;6.90;;;;;;;2.18;67.75;99370.56;125146;1099;104341;-79
2021/04/07 08:46:58;;;;;;;17.03;7.20;;;;;;;2.11;67.46;99377.14;125132;1099;104571;-78
2021/04/07 08:49:38;;;;;;;15.37;7.23;;;;;;;2.03;67.28;99380.17;125146;1099;104277;-79
2021/04/07 08:52:22;;;;;;;14.43;6.20;;;;;;;1.95;68.22;99380.64;125230;1099;104217;-79
2021/04/07 08:54:59;;;;;;;12.70;5.70;;;;;;;1.93;67.95;99363.25;125891;1099;104166;-77
2021/04/07 08:58:01;;;;;;;13.93;6.23;;;;;;;1.89;68.04;99359.63;125835;1098;104293;-76
2021/04/07 09:00:32;;;;;;;16.80;6.67;;;;;;;1.88;67.84;99367.31;125793;1099;104194;-78
2021/04/07 09:03:14;;;;;;;13.93;6.07;;;;;;;1.86;68.16;99363.77;125635;1098;104207;-77
2021/04/07 09:05:45;;;;;;;15.03;5.93;;;;;;;1.82;68.41;99361.81;125937;1099;104300;-76
2021/04/07 09:08:18;;;;;;;15.40;7.00;;;;;;;1.78;68.67;99382.34;125738;1099;104365;-77
2021/04/07 09:10:51;;;;;;;16.13;6.40;;;;;;;1.70;68.78;99375.89;125697;1099;104297;-77
2021/04/07 09:13:22;;;;;;;14.93;6.70;;;;;;;1.65;69.17;99386.79;125706;1099;104165;-77
2021/04/07 09:15:55;;;;;;;20.13;9.10;;;;;;;1.64;69.33;99372.98;125615;1099;104207;-79
2021/04/07 09:18:49;;;;;;;18.00;7.97;;;;;;;1.69;70.07;99363.76;125625;1099;104506;-78
2021/04/07 09:21:28;;;;;;;22.13;10.15;;;;;;;1.69;69.15;99389.63;125689;1096;104204;-78
2021/04/07 09:24:02;;;;;;;;;;;;;;;1.65;69.90;99385.08;125664;1096;107970;-77
2021/04/07 09:26:41;;;;;;;19.50;8.85;;;;;;;1.63;69.69;99397.05;125895;1096;104300;-79
2021/04/07 09:29:13;;;;;;;22.30;9.50;;;;;;;1.63;70.48;99404.81;125815;1096;104172;-77
2021/04/07 09:31:45;;;;;;;29.30;13.07;;;;;;;1.67;69.74;99411.02;125722;1099;104287;-77
2021/04/07 09:34:15;;;;;;;24.87;11.27;;;;;;;1.69;70.79;99417.19;125809;1099;104131;-77
2021/04/07 09:36:48;;;;;;;29.73;13.07;;;;;;;1.71;70.33;99402.63;125845;1099;104364;-78
2021/04/07 09:39:23;;;;;;;29.55;12.70;;;;;;;1.73;70.33;99390.66;125724;1098;104140;-78
2021/04/07 09:41:54;;;;;;;28.33;12.77;;;;;;;1.80;70.73;99400.53;125590;1099;104165;-81
2021/04/07 09:44:23;;;;;;;27.77;11.30;;;;;;;1.84;70.90;99384.37;125698;1096;104172;-80
2021/04/07 09:46:56;;;;;;;24.73;10.13;;;;;;;1.89;71.09;99395.84;125581;1099;104163;-79
2021/04/07 09:49:26;;;;;;;24.90;11.35;;;;;;;1.97;71.21;99399.72;125484;1099;104214;-78
2021/04/07 09:51:56;;;;;;;22.57;10.47;;;;;;;2.02;71.28;99407.72;125582;1096;104278;-77
2021/04/07 09:54:26;;;;;;;21.90;8.83;;;;;;;2.05;70.80;99412.17;125521;1096;104226;-78
2021/04/07 09:57:00;;;;;;;20.97;8.37;;;;;;;2.06;71.21;99420.02;125696;1099;104143;-76
2021/04/07 09:59:35;;;;;;;17.97;7.97;;;;;;;2.11;71.60;99422.84;125708;1098;104150;-78
2021/04/07 10:02:06;;;;;;;26.77;11.67;;;;;;;2.13;71.23;99424.69;125775;1099;104363;-76
2021/04/07 10:04:37;;;;;;;24.57;9.13;;;;;;;2.19;71.02;99418.06;125922;1099;104252;-77
2021/04/07 10:07:18;;;;;;;24.67;10.30;;;;;;;2.23;71.39;99435.52;125676;1096;104165;-77
2021/04/07 10:09:48;;;;;;;25.17;11.50;;;;;;;2.28;71.25;99441.84;125657;1098;104267;-76
2021/04/07 10:12:19;;;;;;;21.53;9.00;;;;;;;2.33;71.00;99449.02;125814;1096;104244;-77
2021/04/07 10:14:50;;;;;;;22.70;9.97;;;;;;;2.36;71.19;99445.70;125782;1099;104278;-77
2021/04/07 10:17:20;;;;;;;24.40;10.13;;;;;;;2.39;71.06;99450.16;125700;1099;104194;-77
2021/04/07 10:19:49;;;;;;;27.10;11.73;;;;;;;2.40;71.55;99452.83;125708;1099;104136;-77
2021/04/07 10:22:23;;;;;;;29.90;12.40;;;;;;;2.43;71.37;99465.94;125590;1099;104187;-78
2021/04/07 10:24:57;;;;;;;29.32;12.85;;;;;;;2.47;71.40;99479.92;125835;1099;104251;-77
2021/04/07 10:27:27;;;;;;;32.48;14.00;;;;;;;2.47;71.13;99480.80;125753;1098;104192;-76
2021/04/07 10:30:06;;;;;;;34.67;15.37;;;;;;;2.51;70.86;99481.87;125921;1099;104397;-77
2021/04/07 10:32:42;;;;;;;43.80;19.27;;;;;;;2.51;71.38;99492.22;125892;1099;104181;-77
2021/04/07 10:35:17;;;;;;;40.30;17.73;;;;;;;2.55;71.76;99493.27;125789;1099;104700;-77
2021/04/07 10:37:56;;;;;;;40.83;15.90;;;;;;;2.59;71.50;99492.62;125823;1099;104166;-77
2021/04/07 10:40:29;;;;;;;29.83;14.10;;;;;;;2.60;71.63;99492.70;125807;1097;104149;-77
2021/04/07 10:43:16;;;;;;;33.47;14.50;;;;;;;2.62;71.45;99495.37;125647;1099;104798;-77
2021/04/07 10:45:56;;;;;;;39.27;17.83;;;;;;;2.67;71.49;99499.95;125681;1099;106632;-76
2021/04/07 10:48:30;;;;;;;31.68;14.28;;;;;;;2.73;71.64;99493.30;125939;1099;104169;-78
2021/04/07 10:50:59;;;;;;;36.73;16.00;;;;;;;2.76;71.53;99499.55;125707;1099;104318;-77
2021/04/07 10:53:32;;;;;;;33.70;13.60;;;;;;;2.79;71.35;99501.38;125528;1099;104169;-77
2021/04/07 10:56:12;;;;;;;27.83;11.80;;;;;;;2.78;71.60;99502.21;125637;1099;120168;-77
2021/04/07 10:58:43;;;;;;;29.30;11.67;;;;;;;2.77;71.37;99497.83;125671;1099;104275;-76
2021/04/07 11:01:12;;;;;;;32.07;12.20;;;;;;;2.79;71.48;99506.55;125765;1099;104191;-76
2021/04/07 11:03:43;;;;;;;27.70;12.37;;;;;;;2.85;71.51;99522.42;125685;1099;104290;-76
2021/04/07 11:06:21;;;;;;;30.30;13.27;;;;;;;2.90;70.98;99520.97;125711;1099;104178;-75
2021/04/07 11:08:53;;;;;;;47.03;22.57;;;;;;;2.87;71.51;99532.05;125813;1099;104828;-75
2021/04/07 11:11:25;;;;;;;26.63;12.40;;;;;;;2.87;71.54;99537.24;125600;1099;104168;-75
2021/04/07 11:13:54;;;;;;;35.57;15.70;;;;;;;2.84;71.85;99550.03;125722;1099;104194;-76
2021/04/07 11:16:33;;;;;;;37.07;16.20;;;;;;;2.85;71.19;99536.28;125721;1099;104268;-76
2021/04/07 11:19:13;;;;;;;34.23;14.93;;;;;;;2.89;71.53;99547.69;125782;1099;104281;-76
2021/04/07 11:21:43;;;;;;;37.07;14.30;;;;;;;2.90;72.00;99543.37;125678;1099;104306;-77
2021/04/07 11:24:14;;;;;;;27.23;11.63;;;;;;;2.99;71.89;99555.12;125536;1099;104297;-77
2021/04/07 11:26:45;;;;;;;37.13;16.67;;;;;;;3.09;71.47;99548.70;126219;1099;104177;-77
2021/04/07 11:29:14;;;;;;;37.13;16.23;;;;;;;3.17;71.89;99549.95;125502;1099;104641;-76
2021/04/07 11:31:44;;;;;;;26.10;11.30;;;;;;;3.30;71.48;99551.45;125529;1099;104223;-77
2021/04/07 11:37:40;;;;;;;37.10;16.23;;;;;;;3.46;71.63;99544.42;125734;1099;108103;-76
2021/04/07 11:40:21;;;;;;;38.17;16.30;;;;;;;3.53;71.59;99552.58;125753;1099;104242;-77